Latest Weather Observations for Tasman Island

IDT60901

Issued at 6:51 pm EST Monday 30 May 2016 (issued every 10 minutes, with the page automatically refreshed every 10 minutes)

About weather observations | Map of Hobart area stations | Latest observations for Hobart area | Other Formats
Station Details ID: 094155 Name: TASMAN ISLAND Lat: -43.24 Lon: 148.00 Height: 240.0 m
Data from the previous 72 hours. | See also: Recent months at Tasman Island
Date/Time
EST
Tmp

°C
App
Tmp
°C
Dew
Point
°C
Rel
Hum
%
Delta-T

°C
Wind Press
QNH
hPa
Press
MSL
hPa
Rain
since
9 am
mm
Dir
 
Spd
km/h
Gust
km/h
Spd
kts
Gust
kts
30/06:30pm 8.3 5.7 3.0 69 2.3 S 6 17 3 9 1029.5 1029.7 0.0
30/06:00pm 8.2 5.5 2.9 69 2.3 SW 6 13 3 7 1029.3 1029.5 0.0
30/05:30pm 8.2 5.5 2.7 68 2.3 NNE 6 13 3 7 1029.0 1029.2 0.0
30/05:00pm 8.1 5.4 2.8 69 2.2 WSW 6 20 3 11 1028.7 1028.9 0.0
30/04:30pm 8.2 5.4 2.9 69 2.3 WSW 7 15 4 8 1028.5 1028.7 0.0
30/04:00pm 8.3 5.1 3.2 70 2.2 W 9 26 5 14 1028.0 1028.2 0.0
30/03:30pm 8.4 5.8 3.3 70 2.2 SSW 6 15 3 8 1027.9 1028.1 0.0
30/03:00pm 8.7 6.9 3.3 69 2.3 E 2 9 1 5 1027.7 1027.8 0.0
30/02:30pm 8.7 5.9 3.3 69 2.3 WSW 7 24 4 13 1027.3 1027.5 0.0
30/02:00pm 8.7 6.5 3.3 69 2.3 SE 4 13 2 7 1027.3 1027.5 0.0
30/01:30pm 8.8 6.2 3.2 68 2.4 W 6 13 3 7 1027.2 1027.4 0.0
30/01:00pm 9.3 7.2 4.1 70 2.3 ENE 4 13 2 7 1027.3 1027.5 0.0
30/12:30pm 8.9 6.2 3.5 69 2.4 S 7 22 4 12 1027.3 1027.5 0.0
30/12:00pm 8.6 5.8 3.4 70 2.2 NNW 7 24 4 13 1027.3 1027.5 0.0
30/11:30am 8.7 5.9 3.3 69 2.3 NW 7 20 4 11 1027.3 1027.5 0.0
30/11:00am 8.7 5.9 3.1 68 2.4 SW 7 20 4 11 1027.6 1027.7 0.0
30/10:30am 8.9 5.7 2.9 66 2.6 WSW 9 19 5 10 1027.6 1027.7 0.0
30/10:00am 8.7 5.9 3.1 68 2.4 SW 7 19 4 10 1027.2 1027.4 0.0
30/09:30am 8.5 5.3 2.9 68 2.4 WSW 9 26 5 14 1026.8 1027.0 0.0
30/09:00am 8.3 5.1 3.2 70 2.2 WSW 9 22 5 12 1026.7 1026.9 6.4
30/08:30am 8.2 5.4 2.9 69 2.3 WSW 7 19 4 10 1026.4 1026.6 6.4
30/08:00am 8.1 4.9 3.0 70 2.2 SW 9 22 5 12 1026.1 1026.3 6.4
30/07:30am 8.2 4.7 3.3 71 2.1 WSW 11 24 6 13 1025.7 1025.9 6.4
30/07:00am 8.3 4.8 3.4 71 2.1 SW 11 26 6 14 1025.4 1025.6 6.4
30/06:30am 8.4 4.6 3.8 73 2.0 SW 13 33 7 18 1025.1 1025.3 6.4
30/06:00am 8.4 4.2 3.8 73 2.0 SW 15 30 8 16 1024.6 1024.8 6.4
30/05:30am 8.2 3.7 2.4 67 2.5 SW 15 32 8 17 1024.4 1024.6 6.4
30/05:00am 8.1 2.7 2.4 67 2.4 SSW 20 33 11 18 1024.0 1024.1 6.4
30/04:30am 8.3 3.0 3.0 69 2.3 SW 20 35 11 19 1023.8 1023.9 6.4
30/04:00am 8.3 3.9 2.8 68 2.3 SW 15 32 8 17 1023.4 1023.5 6.4
30/03:30am 8.2 3.9 3.3 71 2.1 SW 15 28 8 15 1023.2 1023.3 6.4
30/03:00am 8.4 3.7 3.1 69 2.3 SW 17 32 9 17 1022.9 1023.1 6.4
30/02:30am 8.6 3.3 3.0 68 2.4 SW 20 33 11 18 1022.8 1023.0 6.4
30/02:00am 8.7 3.7 3.7 71 2.2 SSW 19 33 10 18 1022.5 1022.7 6.4
30/01:30am 8.5 3.3 3.8 72 2.1 SSW 20 30 11 16 1022.1 1022.3 6.4
30/01:00am 8.6 3.5 4.0 73 2.0 SSW 20 32 11 17 1021.9 1022.1 6.4
30/12:30am 8.6 3.7 4.2 74 2.0 SSW 19 33 10 18 1021.9 1022.1 6.4
30/12:00am 8.6 3.1 4.2 74 1.9 SSW 22 32 12 17 1021.9 1022.1 6.4
 
Date/Time
EST
Tmp

°C
App
Tmp
°C
Dew
Point
°C
Rel
Hum
%
Delta-T

°C
Wind Press
QNH
hPa
Press
MSL
hPa
Rain
since
9 am
mm
Dir
 
Spd
km/h
Gust
km/h
Spd
kts
Gust
kts
29/11:30pm 8.7 2.5 4.3 74 2.0 SSW 26 35 14 19 1021.7 1021.9 6.4
29/11:00pm 8.8 2.6 4.4 74 2.0 SSW 26 35 14 19 1021.4 1021.6 6.4
29/10:30pm 8.9 1.6 4.5 74 2.0 SSW 32 44 17 24 1021.1 1021.3 6.4
29/10:00pm 8.9 2.5 5.3 78 1.6 SSW 28 37 15 20 1021.0 1021.2 6.4
29/09:30pm 8.9 4.3 6.5 85 1.1 SSW 20 39 11 21 1020.7 1020.9 6.4
29/09:00pm 8.6 5.0 6.9 89 0.8 S 15 26 8 14 1020.6 1020.7 6.4
29/08:30pm 8.7 5.2 7.2 90 0.7 S 15 28 8 15 1020.4 1020.5 6.4
29/08:00pm 8.5 4.6 7.1 91 0.7 S 17 33 9 18 1020.1 1020.2 6.4
29/07:30pm 8.7 5.3 7.5 92 0.6 SSW 15 28 8 15 1019.7 1019.8 6.4
29/07:00pm 8.4 3.5 7.0 91 0.7 SSW 22 32 12 17 1019.4 1019.5 6.2
29/06:30pm 8.7 5.6 7.2 90 0.7 S 13 26 7 14 1018.9 1019.0 6.2
29/06:00pm 8.7 4.8 7.2 90 0.7 SSW 17 28 9 15 1018.4 1018.6 6.0
29/05:30pm 8.4 4.5 7.0 91 0.7 S 17 30 9 16 1018.1 1018.3 6.0
29/05:00pm 8.3 4.4 7.1 92 0.6 SSW 17 30 9 16 1017.7 1017.9 6.0
29/04:30pm 8.6 3.4 7.4 92 0.6 SSW 24 35 13 19 1017.4 1017.6 6.0
29/04:00pm 8.8 5.5 7.9 94 0.4 S 15 26 8 14 1016.9 1017.0 6.0
29/03:30pm 8.9 6.8 8.1 95 0.4 S 9 15 5 8 1016.6 1016.7 6.0
29/03:00pm 9.3 7.3 8.5 95 0.4 SSE 9 17 5 9 1016.3 1016.4 6.0
29/02:30pm 8.7 5.7 7.9 95 0.4 SSW 13 20 7 11 1016.1 1016.2 5.8
29/02:00pm 8.8 6.3 8.2 96 0.3 S 11 22 6 12 1015.8 1015.9 5.4
29/01:30pm 8.6 6.0 7.8 95 0.4 SW 11 15 6 8 1015.5 1015.6 5.4
29/01:00pm 8.8 5.9 8.0 95 0.4 SSW 13 22 7 12 1015.2 1015.3 4.4
29/12:30pm 8.8 5.1 8.0 95 0.4 SSW 17 26 9 14 1015.0 1015.1 3.8
29/12:00pm 9.9 8.0 9.1 95 0.4 SW 9 15 5 8 1015.1 1015.2 2.2
29/11:30am 8.6 6.4 7.7 94 0.4 SSW 9 11 5 6 1014.9 1015.0 2.2
29/11:00am 9.2 6.7 8.3 94 0.4 S 11 20 6 11 1015.0 1015.1 1.2
29/10:30am 9.6 7.2 8.7 94 0.4 SSW 11 22 6 12 1014.8 1014.9 0.8
29/10:00am 9.5 7.5 8.6 94 0.4 S 9 17 5 9 1014.6 1014.7 0.4
29/09:30am 9.1 6.6 8.2 94 0.4 SSE 11 20 6 11 1014.1 1014.3 0.4
29/09:00am 8.4 4.5 7.3 93 0.5 SSE 17 33 9 18 1013.7 1013.9 7.4
29/08:30am 8.6 6.3 7.5 93 0.5 S 9 17 5 9 1013.4 1013.5 6.8
29/08:00am 8.2 4.3 7.1 93 0.5 SSE 17 28 9 15 1012.9 1013.0 6.6
29/07:30am 8.6 5.2 7.5 93 0.5 S 15 30 8 16 1012.5 1012.6 6.4
29/07:00am 9.0 5.7 8.2 95 0.4 SSE 15 26 8 14 1012.0 1012.1 6.2
29/06:30am 8.8 5.9 8.0 95 0.4 SSW 13 22 7 12 1011.6 1011.7 6.2
29/06:00am 8.6 4.9 7.8 95 0.4 SSW 17 32 9 17 1011.4 1011.5 5.8
29/05:30am 9.0 6.5 8.1 94 0.4 S 11 20 6 11 1011.0 1011.1 5.8
29/05:00am 8.2 4.0 7.3 94 0.4 SSE 19 32 10 17 1010.6 1010.7 5.4
29/04:30am 9.0 4.8 8.1 94 0.4 SSW 20 32 11 17 1010.1 1010.1 4.8
29/04:00am 8.7 4.0 7.8 94 0.4 SSW 22 39 12 21 1009.7 1009.8 4.6
29/03:30am 9.4 3.7 8.3 93 0.5 SSW 28 54 15 29 1009.5 1009.6 4.4
29/03:00am 8.7 1.5 7.5 92 0.6 SW 35 57 19 31 1009.3 1009.4 4.4
29/02:30am 8.8 1.6 7.6 92 0.6 SW 35 54 19 29 1009.0 1009.1 4.4
29/02:00am 8.8 2.6 7.9 94 0.4 SW 30 50 16 27 1009.1 1009.2 4.4
29/01:39am 8.9 3.1 8.0 94 0.4 SW 28 46 15 25 1009.1 1009.2 4.4
29/01:30am 8.6 3.5 7.7 94 0.4 SSW 24 39 13 21 1009.1 1009.2 4.4
29/01:00am 8.9 4.6 8.0 94 0.4 SW 20 35 11 19 1008.9 1009.0 4.4
29/12:30am 9.1 5.5 8.3 95 0.4 SSW 17 33 9 18 1008.9 1009.0 4.4
29/12:00am 8.7 5.7 7.8 94 0.4 WSW 13 32 7 17 1008.8 1008.9 4.0
 
Date/Time
EST
Tmp

°C
App
Tmp
°C
Dew
Point
°C
Rel
Hum
%
Delta-T

°C
Wind Press
QNH
hPa
Press
MSL
hPa
Rain
since
9 am
mm
Dir
 
Spd
km/h
Gust
km/h
Spd
kts
Gust
kts
28/11:30pm 9.0 6.4 7.9 93 0.5 NNE 11 32 6 17 1008.7 1008.8 3.2
28/11:00pm 8.3 6.5 7.2 93 0.5 NNE 6 17 3 9 1008.9 1009.0 3.2
28/10:30pm 8.4 4.5 7.2 92 0.6 WSW 17 44 9 24 1008.7 1008.8 3.0
28/10:00pm 9.2 6.7 8.1 93 0.5 SW 11 32 6 17 1008.9 1009.0 2.6
28/09:30pm 8.6 6.9 7.5 93 0.5 NW 6 15 3 8 1008.9 1009.0 2.6
28/09:00pm 8.6 6.9 7.4 92 0.6 ENE 6 13 3 7 1008.9 1009.0 2.6
28/08:30pm 8.5 5.7 7.0 90 0.7 WSW 11 24 6 13 1008.7 1008.8 2.2
28/08:00pm 8.8 6.8 7.1 89 0.8 W 7 17 4 9 1008.5 1008.6 2.2
28/07:30pm 8.0 4.7 6.3 89 0.8 SW 13 28 7 15 1008.5 1008.6 1.8
28/07:00pm 7.9 4.5 5.7 86 1.0 WSW 13 24 7 13 1008.4 1008.5 1.6
28/06:30pm 8.4 5.8 5.9 84 1.2 WSW 9 19 5 10 1008.1 1008.2 1.0
28/06:00pm 8.7 5.9 7.0 89 0.8 SSW 11 26 6 14 1007.8 1007.9 1.0
28/05:30pm 8.6 4.7 6.9 89 0.8 SW 17 30 9 16 1007.6 1007.7 1.0
28/05:00pm 8.2 4.8 6.0 86 1.0 WSW 13 33 7 18 1007.4 1007.5 0.4
28/04:30pm 9.1 6.5 6.0 81 1.4 SSW 9 24 5 13 1007.1 1007.2 0.0
28/04:00pm 9.5 7.3 6.0 79 1.6 SSW 7 20 4 11 1007.0 1007.1 0.0
28/03:30pm 9.4 6.3 5.6 77 1.8 SW 11 22 6 12 1006.9 1007.0 0.0
28/03:00pm 10.2 7.6 6.0 75 2.0 SW 9 19 5 10 1006.8 1006.9 0.0
28/02:30pm 10.3 7.2 5.7 73 2.1 WSW 11 20 6 11 1006.5 1006.5 0.0
28/02:00pm 10.4 7.3 5.6 72 2.2 WSW 11 26 6 14 1006.4 1006.4 0.0
28/01:30pm 10.1 8.4 5.9 75 2.0 SSW 4 15 2 8 1006.3 1006.3 0.0
28/01:00pm 9.9 7.2 5.7 75 2.0 W 9 20 5 11 1006.2 1006.2 0.0
28/12:30pm 9.9 7.7 5.3 73 2.1 WSW 6 26 3 14 1006.5 1006.5 0.0
28/12:00pm 9.7 6.1 4.9 72 2.2 W 13 28 7 15 1006.6 1006.6 0.0
28/11:30am 10.0 7.2 5.2 72 2.2 W 9 20 5 11 1006.7 1006.8 0.0
28/11:00am 9.9 7.7 5.3 73 2.1 WNW 6 15 3 8 1006.9 1007.0 0.0
28/10:30am 9.9 7.7 5.3 73 2.1 WSW 6 15 3 8 1006.9 1007.0 0.0
28/10:00am 9.6 7.8 5.4 75 1.9 SSW 4 13 2 7 1006.8 1006.9 0.0
28/09:30am 8.6 6.1 4.8 77 1.7 W 7 20 4 11 1006.8 1006.9 0.0
28/09:00am 8.3 5.8 4.9 79 1.5 W 7 20 4 11 1006.9 1007.0 0.6
28/08:30am 8.0 5.8 5.1 82 1.3 WNW 6 19 3 10 1007.0 1007.1 0.6
28/08:00am 7.4 5.1 5.0 85 1.1 WNW 6 15 3 8 1006.9 1007.0 0.6
28/07:30am 7.3 5.1 5.1 86 1.0 WNW 6 17 3 9 1006.7 1006.8 0.6
28/07:00am 7.2 5.0 5.2 87 0.9 WNW 6 13 3 7 1006.6 1006.6 0.6
28/06:30am 7.3 5.0 5.0 85 1.0 SW 6 20 3 11 1006.5 1006.5 0.6
28/06:00am 7.7 5.5 5.2 84 1.1 SW 6 28 3 15 1006.3 1006.3 0.6
28/05:30am 7.8 5.6 5.1 83 1.2 NW 6 24 3 13 1006.2 1006.2 0.6
28/05:00am 8.1 5.7 5.2 82 1.3 NW 7 26 4 14 1006.1 1006.1 0.6
28/04:30am 8.2 5.8 5.3 82 1.3 WSW 7 24 4 13 1006.2 1006.2 0.6
28/04:00am 8.3 5.6 5.4 82 1.3 W 9 32 5 17 1006.2 1006.2 0.6
28/03:30am 8.3 5.6 5.4 82 1.3 S 9 28 5 15 1006.1 1006.1 0.6
28/03:00am 8.4 6.2 5.5 82 1.3 WSW 6 20 3 11 1006.2 1006.2 0.6
28/02:30am 8.5 5.4 5.6 82 1.3 WSW 11 28 6 15 1006.3 1006.3 0.6
28/02:00am 8.5 5.8 5.4 81 1.4 W 9 20 5 11 1006.4 1006.4 0.6
28/01:30am 8.6 5.9 5.5 81 1.4 SW 9 24 5 13 1006.2 1006.2 0.6
28/01:00am 8.7 5.2 5.4 80 1.5 WSW 13 35 7 19 1006.2 1006.2 0.6
28/12:30am 8.9 5.9 5.8 81 1.4 WSW 11 28 6 15 1006.3 1006.3 0.6
28/12:00am 8.9 5.4 5.6 80 1.5 WSW 13 26 7 14 1006.4 1006.4 0.6
 
Date/Time
EST
Tmp

°C
App
Tmp
°C
Dew
Point
°C
Rel
Hum
%
Delta-T

°C
Wind Press
QNH
hPa
Press
MSL
hPa
Rain
since
9 am
mm
Dir
 
Spd
km/h
Gust
km/h
Spd
kts
Gust
kts
27/11:30pm 9.0 5.9 5.6 79 1.6 SW 11 33 6 18 1006.5 1006.5 0.6
27/11:00pm 9.1 5.2 5.5 78 1.7 SW 15 33 8 18 1006.5 1006.5 0.6
27/10:30pm 9.4 5.1 5.2 75 1.9 SW 17 33 9 18 1006.7 1006.8 0.6
27/10:00pm 9.4 5.0 4.8 73 2.1 SSW 17 33 9 18 1006.7 1006.8 0.6
27/09:30pm 9.4 4.1 4.8 73 2.1 SW 22 35 12 19 1006.7 1006.8 0.6
27/09:00pm 9.4 2.9 4.6 72 2.2 SW 28 39 15 21 1006.7 1006.8 0.6
27/08:30pm 9.4 3.6 4.6 72 2.2 SW 24 44 13 24 1006.6 1006.6 0.6
27/08:00pm 9.3 3.8 4.1 70 2.3 SSW 22 35 12 19 1006.5 1006.5 0.6
27/07:30pm 9.4 4.3 4.2 70 2.3 SSW 20 41 11 22 1006.2 1006.2 0.6
27/07:00pm 9.2 3.2 3.6 68 2.5 SW 24 43 13 23 1006.1 1006.1 0.6

Latest Capital City Observations: Canberra | Sydney | Melbourne | Brisbane | Adelaide | Perth | Hobart | Darwin

Other Formats:

Comma delimited format used in spreadsheet applications
http://www.bom.gov.au/fwo/IDT60901/IDT60901.95986.axf

JavaScript Object Notation format (JSON) in row-major order
http://www.bom.gov.au/fwo/IDT60901/IDT60901.95986.json